createdAt,value
2022-11-23T00:02:03.653Z,2.71
2022-11-23T00:04:30.251Z,2.67
2022-11-23T00:06:56.788Z,2.66
2022-11-23T00:09:23.320Z,2.62
2022-11-23T00:11:49.904Z,2.64
2022-11-23T00:14:16.445Z,2.64
2022-11-23T00:16:43.042Z,2.64
2022-11-23T00:19:09.790Z,2.63
2022-11-23T00:21:36.386Z,2.61
2022-11-23T00:24:03.074Z,2.59
2022-11-23T00:26:30.102Z,2.65
2022-11-23T00:28:56.659Z,2.61
2022-11-23T00:31:23.314Z,2.62
2022-11-23T00:33:50.777Z,2.57
2022-11-23T00:36:17.510Z,2.61
2022-11-23T00:38:44.440Z,2.57
2022-11-23T00:41:13.152Z,2.59
2022-11-23T00:43:40.064Z,2.57
2022-11-23T00:46:14.291Z,2.55
2022-11-23T00:48:41.022Z,2.56
2022-11-23T00:51:09.045Z,2.53
2022-11-23T00:53:35.809Z,2.52
2022-11-23T00:56:02.719Z,2.57
2022-11-23T00:58:29.768Z,2.49
2022-11-23T01:01:03.776Z,2.46
2022-11-23T01:03:30.905Z,2.58
2022-11-23T01:06:05.128Z,2.56
2022-11-23T01:08:31.740Z,2.58
2022-11-23T01:10:58.887Z,2.57
2022-11-23T01:13:25.420Z,2.56
2022-11-23T01:15:51.993Z,2.57
2022-11-23T01:18:18.556Z,2.57
2022-11-23T01:20:45.067Z,2.57
2022-11-23T01:23:11.595Z,2.62
2022-11-23T01:25:38.114Z,2.57
2022-11-23T01:28:04.745Z,2.53
2022-11-23T01:30:31.478Z,2.60
2022-11-23T01:32:58.028Z,2.56
2022-11-23T01:35:24.580Z,2.56
2022-11-23T01:37:51.150Z,2.55
2022-11-23T01:40:17.700Z,2.50
2022-11-23T01:42:49.640Z,2.52
2022-11-23T01:45:28.187Z,2.50
2022-11-23T01:47:54.847Z,2.50
2022-11-23T01:50:21.429Z,2.50
2022-11-23T01:52:47.969Z,2.46
2022-11-23T01:55:14.620Z,2.50
2022-11-23T01:57:42.588Z,2.47
2022-11-23T02:00:09.431Z,2.44
2022-11-23T02:02:36.868Z,2.47
2022-11-23T02:05:04.059Z,2.47
2022-11-23T02:07:31.423Z,2.48
2022-11-23T02:09:58.136Z,2.52
2022-11-23T02:12:24.703Z,2.47
2022-11-23T02:14:51.216Z,2.44
2022-11-23T02:17:17.854Z,2.46
2022-11-23T02:20:13.700Z,2.49
2022-11-23T02:22:53.773Z,2.47
2022-11-23T02:25:39.252Z,2.43
2022-11-23T02:28:06.182Z,2.44
2022-11-23T02:30:34.721Z,2.43
2022-11-23T02:33:03.710Z,2.41
2022-11-23T02:35:30.235Z,2.47
2022-11-23T02:37:56.784Z,2.47
2022-11-23T02:40:26.407Z,2.49
2022-11-23T02:42:52.928Z,2.49
2022-11-23T02:45:24.262Z,2.48
2022-11-23T02:47:50.713Z,2.47
2022-11-23T02:50:17.270Z,2.49
2022-11-23T02:52:43.833Z,2.45
2022-11-23T02:55:10.889Z,2.43
2022-11-23T02:57:37.377Z,2.40
2022-11-23T03:00:04.164Z,2.43
2022-11-23T03:02:30.664Z,2.43
2022-11-23T03:04:57.146Z,2.41
2022-11-23T03:07:23.672Z,2.41
2022-11-23T03:09:50.421Z,2.42
2022-11-23T03:12:16.939Z,2.39
2022-11-23T03:14:43.441Z,2.43
2022-11-23T03:17:09.958Z,2.41
2022-11-23T03:19:36.469Z,2.41
2022-11-23T03:22:03.608Z,2.42
2022-11-23T03:24:30.223Z,2.42
2022-11-23T03:26:56.706Z,2.42
2022-11-23T03:29:26.501Z,2.43
2022-11-23T03:31:53.759Z,2.46
2022-11-23T03:34:20.309Z,2.42
2022-11-23T03:36:46.902Z,2.42
2022-11-23T03:39:13.397Z,2.41
2022-11-23T03:41:39.967Z,2.41
2022-11-23T03:44:06.468Z,2.42
2022-11-23T03:46:32.992Z,2.38
2022-11-23T03:48:59.467Z,2.37
2022-11-23T03:51:26.164Z,2.38
2022-11-23T03:53:52.650Z,2.43
2022-11-23T03:56:20.144Z,2.35
2022-11-23T03:58:46.622Z,2.37
2022-11-23T04:01:13.196Z,2.36
2022-11-23T04:03:39.690Z,2.39
2022-11-23T04:06:06.228Z,2.38
2022-11-23T04:08:32.708Z,2.33
2022-11-23T04:10:59.516Z,2.34
2022-11-23T04:13:25.981Z,2.34
2022-11-23T04:15:52.509Z,2.33
2022-11-23T04:18:19.039Z,2.33
2022-11-23T04:20:45.615Z,2.40
2022-11-23T04:23:13.714Z,2.33
2022-11-23T04:25:40.483Z,2.30
2022-11-23T04:28:06.974Z,2.27
2022-11-23T04:30:33.506Z,2.28
2022-11-23T04:33:00.033Z,2.30
2022-11-23T04:35:26.561Z,2.30
2022-11-23T04:37:53.079Z,2.30
2022-11-23T04:40:19.630Z,2.25
2022-11-23T04:42:46.108Z,2.26
2022-11-23T04:45:12.630Z,2.27
2022-11-23T04:47:39.149Z,2.31
2022-11-23T04:50:06.055Z,2.28
2022-11-23T04:52:32.604Z,2.28
2022-11-23T04:54:59.121Z,2.31
2022-11-23T04:57:25.657Z,2.33
2022-11-23T04:59:52.226Z,2.32
2022-11-23T05:02:18.759Z,2.31
2022-11-23T05:04:45.234Z,2.32
2022-11-23T05:07:11.843Z,2.35
2022-11-23T05:09:38.375Z,2.33
2022-11-23T05:12:04.978Z,2.36
2022-11-23T05:14:31.829Z,2.34
2022-11-23T05:16:58.346Z,2.32
2022-11-23T05:19:24.878Z,2.24
2022-11-23T05:21:51.526Z,2.30
2022-11-23T05:24:18.095Z,2.29
2022-11-23T05:26:44.594Z,2.23
2022-11-23T05:29:11.116Z,2.21
2022-11-23T05:31:37.625Z,2.21
2022-11-23T05:34:04.654Z,2.24
2022-11-23T05:36:31.547Z,2.27
2022-11-23T05:38:58.239Z,2.25
2022-11-23T05:41:24.713Z,2.22
2022-11-23T05:43:51.241Z,2.24
2022-11-23T05:46:18.841Z,2.32
2022-11-23T05:48:45.417Z,2.32
2022-11-23T05:51:11.898Z,2.28
2022-11-23T05:53:38.412Z,2.29
2022-11-23T05:56:05.031Z,2.33
2022-11-23T05:58:31.523Z,2.32
2022-11-23T06:01:01.512Z,2.32
2022-11-23T06:03:28.238Z,2.36
2022-11-23T06:05:54.735Z,2.40
2022-11-23T06:08:21.237Z,2.44
2022-11-23T06:10:47.847Z,2.51
2022-11-23T06:13:14.341Z,2.44
2022-11-23T06:15:40.833Z,2.35
2022-11-23T06:18:07.339Z,2.36
2022-11-23T06:20:33.844Z,2.31
2022-11-23T06:23:00.367Z,2.35
2022-11-23T06:25:26.908Z,2.32
2022-11-23T06:27:54.167Z,2.35
2022-11-23T06:30:20.848Z,2.28
2022-11-23T06:32:47.404Z,2.30
2022-11-23T06:35:13.976Z,2.33
2022-11-23T06:37:40.465Z,2.29
2022-11-23T06:40:07.325Z,2.30
2022-11-23T06:42:40.795Z,2.34
2022-11-23T06:45:07.757Z,2.30
2022-11-23T06:47:34.593Z,2.33
2022-11-23T06:50:01.184Z,2.37
2022-11-23T06:52:27.757Z,2.42
2022-11-23T06:54:54.315Z,2.45
2022-11-23T06:57:20.820Z,2.46
2022-11-23T06:59:47.334Z,2.49
2022-11-23T07:02:14.741Z,2.52
2022-11-23T07:04:41.226Z,2.56
2022-11-23T07:07:08.308Z,2.60
2022-11-23T07:09:35.213Z,2.60
2022-11-23T07:12:02.024Z,2.65
2022-11-23T07:14:28.594Z,2.68
2022-11-23T07:16:55.381Z,2.70
2022-11-23T07:19:21.862Z,2.75
2022-11-23T07:21:48.374Z,2.76
2022-11-23T07:24:14.859Z,2.73
2022-11-23T07:26:41.358Z,2.76
2022-11-23T07:29:07.860Z,2.81
2022-11-23T07:31:34.408Z,2.83
2022-11-23T07:34:00.865Z,2.84
2022-11-23T07:36:27.397Z,2.88
2022-11-23T07:38:53.858Z,2.90
2022-11-23T07:41:20.420Z,2.97
2022-11-23T07:43:47.000Z,3.02
2022-11-23T07:46:13.527Z,3.09
2022-11-23T07:48:40.024Z,3.09
2022-11-23T07:51:06.524Z,3.07
2022-11-23T07:53:32.973Z,3.14
2022-11-23T07:55:59.498Z,3.17
2022-11-23T07:58:26.032Z,3.23
2022-11-23T08:00:52.887Z,3.38
2022-11-23T08:03:28.480Z,3.70
2022-11-23T08:05:56.158Z,3.65
2022-11-23T08:08:22.835Z,3.74
2022-11-23T08:10:53.373Z,3.64
2022-11-23T08:13:20.938Z,3.65
2022-11-23T08:15:53.428Z,3.54
2022-11-23T08:18:20.841Z,3.45
2022-11-23T08:20:47.465Z,3.52
2022-11-23T08:23:13.989Z,3.59
2022-11-23T08:25:40.519Z,3.58
2022-11-23T08:28:07.499Z,3.56
2022-11-23T08:30:34.295Z,3.58
2022-11-23T08:33:04.802Z,3.59
2022-11-23T08:35:33.051Z,3.58
2022-11-23T08:37:59.578Z,3.63
2022-11-23T08:40:26.152Z,3.68
2022-11-23T08:42:52.804Z,3.71
2022-11-23T08:45:19.337Z,3.79
2022-11-23T08:47:45.870Z,3.90
2022-11-23T08:50:12.554Z,3.86
2022-11-23T08:52:39.094Z,3.95
2022-11-23T08:55:06.022Z,3.95
2022-11-23T08:57:32.529Z,3.99
2022-11-23T08:59:59.069Z,4.03
2022-11-23T09:02:25.536Z,4.03
2022-11-23T09:04:52.052Z,4.05
2022-11-23T09:07:18.619Z,4.08
2022-11-23T09:09:45.284Z,4.08
2022-11-23T09:12:11.976Z,4.14
2022-11-23T09:14:38.678Z,4.09
2022-11-23T09:17:05.361Z,4.07
2022-11-23T09:19:31.885Z,4.04
2022-11-23T09:21:58.537Z,4.01
2022-11-23T09:24:26.008Z,4.01
2022-11-23T09:26:52.749Z,4.01
2022-11-23T09:29:19.450Z,4.00
2022-11-23T09:31:45.971Z,4.00
2022-11-23T09:34:13.851Z,3.96
2022-11-23T09:36:40.402Z,3.98
2022-11-23T09:39:06.943Z,4.02
2022-11-23T09:41:48.124Z,4.02
2022-11-23T09:44:34.438Z,4.08
2022-11-23T09:47:13.523Z,4.14
2022-11-23T09:49:55.806Z,4.19
2022-11-23T09:52:24.201Z,4.20
2022-11-23T09:54:53.439Z,4.20
2022-11-23T09:57:22.602Z,4.26
2022-11-23T09:59:59.293Z,4.37
2022-11-23T10:02:26.680Z,4.47
2022-11-23T10:04:53.878Z,4.48
2022-11-23T10:07:30.450Z,4.48
2022-11-23T10:10:00.446Z,4.53
2022-11-23T10:12:49.240Z,4.58
2022-11-23T10:15:28.084Z,4.61
2022-11-23T10:17:54.645Z,4.48
2022-11-23T10:20:22.567Z,4.51
2022-11-23T10:22:57.562Z,4.57
2022-11-23T10:25:24.679Z,4.62
2022-11-23T10:27:53.401Z,4.67
2022-11-23T10:30:20.690Z,4.66
2022-11-23T10:33:10.956Z,4.67
2022-11-23T10:35:38.447Z,4.68
2022-11-23T10:38:18.099Z,4.67
2022-11-23T10:40:57.763Z,4.68
2022-11-23T10:43:26.410Z,4.74
2022-11-23T10:46:12.923Z,4.69
2022-11-23T10:48:39.436Z,4.71
2022-11-23T10:51:24.844Z,4.72
2022-11-23T10:53:53.984Z,4.68
2022-11-23T10:56:20.605Z,4.65
2022-11-23T10:58:47.319Z,4.65
2022-11-23T11:01:15.161Z,4.64
2022-11-23T11:03:41.879Z,4.65
2022-11-23T11:06:10.260Z,4.63
2022-11-23T11:08:49.054Z,4.65
2022-11-23T11:11:24.117Z,4.67
2022-11-23T11:13:51.163Z,4.67
2022-11-23T11:16:27.942Z,4.68
2022-11-23T11:18:54.538Z,4.73
2022-11-23T11:21:34.545Z,4.76
2022-11-23T11:24:05.755Z,4.80
2022-11-23T11:26:36.168Z,4.86
2022-11-23T11:29:04.719Z,4.93
2022-11-23T11:31:31.276Z,4.94
2022-11-23T11:34:09.875Z,5.00
2022-11-23T11:36:43.001Z,5.05
2022-11-23T11:39:18.787Z,5.11
2022-11-23T11:41:47.439Z,5.13
2022-11-23T11:44:19.080Z,5.10
2022-11-23T11:46:48.137Z,5.14
2022-11-23T11:49:26.561Z,5.19
2022-11-23T11:52:13.399Z,5.21
2022-11-23T11:54:46.980Z,5.18
2022-11-23T11:57:20.084Z,5.29
2022-11-23T11:59:52.987Z,5.38
2022-11-23T12:02:28.556Z,5.51
2022-11-23T12:05:13.964Z,5.54
2022-11-23T12:07:46.696Z,5.55
2022-11-23T12:10:17.583Z,5.56
2022-11-23T12:12:44.488Z,5.55
2022-11-23T12:15:47.961Z,5.61
2022-11-23T12:18:18.402Z,5.62
2022-11-23T12:20:50.723Z,5.60
2022-11-23T12:23:17.254Z,5.58
2022-11-23T12:25:53.328Z,5.67
2022-11-23T12:28:25.652Z,5.75
2022-11-23T12:30:52.276Z,5.71
2022-11-23T12:33:33.061Z,5.51
2022-11-23T12:36:05.799Z,5.60
2022-11-23T12:38:42.893Z,5.63
2022-11-23T12:41:28.119Z,5.63
2022-11-23T12:44:00.743Z,5.53
2022-11-23T12:46:33.523Z,5.56
2022-11-23T12:49:06.050Z,5.65
2022-11-23T12:51:40.520Z,5.69
2022-11-23T12:54:15.775Z,5.62
2022-11-23T12:56:51.401Z,5.63
2022-11-23T12:59:18.923Z,5.50
2022-11-23T13:01:49.562Z,5.50
2022-11-23T13:04:31.412Z,5.53
2022-11-23T13:07:28.419Z,5.54
2022-11-23T13:09:44.681Z,5.56
2022-11-23T13:12:20.293Z,5.59
2022-11-23T13:15:22.077Z,5.60
2022-11-23T13:18:12.403Z,5.62
2022-11-23T13:20:41.681Z,5.56
2022-11-23T13:23:08.581Z,5.54
2022-11-23T13:25:35.191Z,5.54
2022-11-23T13:28:03.679Z,5.56
2022-11-23T13:30:51.877Z,5.49
2022-11-23T13:33:16.780Z,5.58
2022-11-23T13:35:43.812Z,5.47
2022-11-23T13:38:16.485Z,5.43
2022-11-23T13:40:44.251Z,5.40
2022-11-23T13:43:30.365Z,5.33
2022-11-23T13:46:15.587Z,5.25
2022-11-23T13:48:56.605Z,5.17
2022-11-23T13:51:25.057Z,5.14
2022-11-23T13:53:54.905Z,5.09
2022-11-23T13:56:33.756Z,5.08
2022-11-23T13:59:20.974Z,5.07
2022-11-23T14:02:06.089Z,5.12
2022-11-23T14:04:33.998Z,5.14
2022-11-23T14:07:07.000Z,5.11
2022-11-23T14:09:39.415Z,5.07
2022-11-23T14:12:12.076Z,5.08
2022-11-23T14:14:57.356Z,5.09
2022-11-23T14:17:39.995Z,5.05
2022-11-23T14:20:16.782Z,5.04
2022-11-23T14:22:46.371Z,5.08
2022-11-23T14:25:15.653Z,5.08
2022-11-23T14:27:50.681Z,5.12
2022-11-23T14:30:17.281Z,5.20
2022-11-23T14:33:03.833Z,5.26
2022-11-23T14:35:33.210Z,5.28
2022-11-23T14:38:18.292Z,5.27
2022-11-23T14:40:44.812Z,5.20
2022-11-23T14:43:14.766Z,5.13
2022-11-23T14:45:41.519Z,5.00
2022-11-23T14:48:26.853Z,4.94
2022-11-23T14:50:57.843Z,4.97
2022-11-23T14:53:27.863Z,4.92
2022-11-23T14:55:54.486Z,4.88
2022-11-23T14:58:23.719Z,4.87
2022-11-23T15:00:50.257Z,4.82
2022-11-23T15:03:49.224Z,4.72
2022-11-23T15:06:14.736Z,4.65
2022-11-23T15:08:47.664Z,4.64
2022-11-23T15:11:16.945Z,4.55
2022-11-23T15:13:44.772Z,4.47
2022-11-23T15:16:12.408Z,4.43
2022-11-23T15:18:39.168Z,4.43
2022-11-23T15:21:14.758Z,4.29
2022-11-23T15:23:49.518Z,4.19
2022-11-23T15:26:34.702Z,4.19
2022-11-23T15:29:02.560Z,4.13
2022-11-23T15:31:36.372Z,4.05
2022-11-23T15:34:12.963Z,4.02
2022-11-23T15:36:41.125Z,4.03
2022-11-23T15:39:10.648Z,4.02
2022-11-23T15:41:37.485Z,4.00
2022-11-23T15:44:15.451Z,3.92
2022-11-23T15:46:42.840Z,3.90
2022-11-23T15:49:13.011Z,3.87
2022-11-23T15:51:41.412Z,3.87
2022-11-23T15:54:31.129Z,3.88
2022-11-23T15:57:00.795Z,3.84
2022-11-23T15:59:30.538Z,3.77
2022-11-23T16:01:57.527Z,3.76
2022-11-23T16:04:30.479Z,3.75
2022-11-23T16:06:57.644Z,3.73
2022-11-23T16:09:57.161Z,3.71
2022-11-23T16:12:31.284Z,3.68
2022-11-23T16:14:58.961Z,3.68
2022-11-23T16:17:29.329Z,3.64
2022-11-23T16:20:00.799Z,3.59
2022-11-23T16:22:27.399Z,3.59
2022-11-23T16:24:59.316Z,3.57
2022-11-23T16:27:25.897Z,3.54
2022-11-23T16:29:53.256Z,3.53
2022-11-23T16:32:25.196Z,3.49
2022-11-23T16:34:52.539Z,3.39
2022-11-23T16:37:19.205Z,3.33
2022-11-23T16:39:45.759Z,3.32
2022-11-23T16:42:14.101Z,3.32
2022-11-23T16:44:42.065Z,3.31
2022-11-23T16:47:19.539Z,3.24
2022-11-23T16:49:46.107Z,3.12
2022-11-23T16:52:12.662Z,3.06
2022-11-23T16:54:39.252Z,3.05
2022-11-23T16:57:05.957Z,3.06
2022-11-23T16:59:32.957Z,3.06
2022-11-23T17:01:59.827Z,3.03
2022-11-23T17:04:26.637Z,2.95
2022-11-23T17:06:53.206Z,2.85
2022-11-23T17:09:19.866Z,2.76
2022-11-23T17:11:47.976Z,2.73
2022-11-23T17:14:18.518Z,2.72
2022-11-23T17:16:46.671Z,2.60
2022-11-23T17:19:17.284Z,2.55
2022-11-23T17:21:45.163Z,2.42
2022-11-23T17:24:13.113Z,2.27
2022-11-23T17:26:47.480Z,2.30
2022-11-23T17:29:16.303Z,2.26
2022-11-23T17:31:43.713Z,2.19
2022-11-23T17:34:10.361Z,2.18
2022-11-23T17:36:37.196Z,2.21
2022-11-23T17:39:04.075Z,2.22
2022-11-23T17:41:30.641Z,2.20
2022-11-23T17:43:59.690Z,2.19
2022-11-23T17:46:26.941Z,2.19
2022-11-23T17:48:57.276Z,2.13
2022-11-23T17:51:24.252Z,2.06
2022-11-23T17:53:51.136Z,2.03
2022-11-23T17:56:19.582Z,2.02
2022-11-23T17:58:46.320Z,2.02
2022-11-23T18:01:15.047Z,2.03
2022-11-23T18:03:42.566Z,2.08
2022-11-23T18:06:12.860Z,2.09
2022-11-23T18:08:39.395Z,2.08
2022-11-23T18:11:06.291Z,2.05
2022-11-23T18:13:32.813Z,2.04
2022-11-23T18:15:59.426Z,2.02
2022-11-23T18:18:26.013Z,2.01
2022-11-23T18:20:53.062Z,1.99
2022-11-23T18:23:19.892Z,1.97
2022-11-23T18:25:46.600Z,1.94
2022-11-23T18:28:16.322Z,1.94
2022-11-23T18:30:44.500Z,1.93
2022-11-23T18:33:11.053Z,1.94
2022-11-23T18:35:37.618Z,1.91
2022-11-23T18:38:04.184Z,1.89
2022-11-23T18:40:30.685Z,1.87
2022-11-23T18:42:58.756Z,1.82
2022-11-23T18:45:25.396Z,1.81
2022-11-23T18:47:52.006Z,1.79
2022-11-23T18:50:18.540Z,1.72
2022-11-23T18:52:45.081Z,1.68
2022-11-23T18:55:11.931Z,1.64
2022-11-23T18:57:38.454Z,1.66
2022-11-23T19:00:06.512Z,1.68
2022-11-23T19:02:34.345Z,1.65
2022-11-23T19:05:00.922Z,1.65
2022-11-23T19:07:27.638Z,1.62
2022-11-23T19:09:54.359Z,1.60
2022-11-23T19:12:20.884Z,1.61
2022-11-23T19:14:49.955Z,1.62
2022-11-23T19:17:17.214Z,1.61
2022-11-23T19:19:43.744Z,1.61
2022-11-23T19:22:10.287Z,1.59
2022-11-23T19:24:36.875Z,1.60
2022-11-23T19:27:03.403Z,1.59
2022-11-23T19:29:29.978Z,1.61
2022-11-23T19:31:56.526Z,1.61
2022-11-23T19:34:23.242Z,1.63
2022-11-23T19:36:49.767Z,1.58
2022-11-23T19:39:16.316Z,1.48
2022-11-23T19:41:43.081Z,1.49
2022-11-23T19:44:09.764Z,1.51
2022-11-23T19:46:36.353Z,1.52
2022-11-23T19:49:04.829Z,1.56
2022-11-23T19:51:31.402Z,1.55
2022-11-23T19:53:58.184Z,1.60
2022-11-23T19:56:25.873Z,1.58
2022-11-23T19:58:53.617Z,1.58
2022-11-23T20:01:21.379Z,1.60
2022-11-23T20:03:49.080Z,1.60
2022-11-23T20:06:16.893Z,1.59
2022-11-23T20:08:44.060Z,1.57
2022-11-23T20:11:15.197Z,1.56
2022-11-23T20:13:42.013Z,1.58
2022-11-23T20:16:10.393Z,1.57
2022-11-23T20:18:36.961Z,1.52
2022-11-23T20:21:03.760Z,1.51
2022-11-23T20:23:30.555Z,1.51
2022-11-23T20:25:57.772Z,1.48
2022-11-23T20:28:24.760Z,1.44
2022-11-23T20:30:51.786Z,1.44
2022-11-23T20:33:19.609Z,1.46
2022-11-23T20:35:47.847Z,1.47
2022-11-23T20:38:14.521Z,1.48
2022-11-23T20:40:41.099Z,1.48
2022-11-23T20:43:07.639Z,1.47
2022-11-23T20:45:34.169Z,1.49
2022-11-23T20:48:00.821Z,1.39
2022-11-23T20:50:28.015Z,1.30
2022-11-23T20:52:59.365Z,1.30
2022-11-23T20:55:25.936Z,1.30
2022-11-23T20:57:53.202Z,1.31
2022-11-23T21:00:21.523Z,1.31
2022-11-23T21:02:48.970Z,1.30
2022-11-23T21:05:15.722Z,1.34
2022-11-23T21:07:42.270Z,1.37
2022-11-23T21:10:09.021Z,1.40
2022-11-23T21:12:54.132Z,1.41
2022-11-23T21:15:20.956Z,1.42
2022-11-23T21:17:47.502Z,1.41
2022-11-23T21:20:14.918Z,1.41
2022-11-23T21:22:41.439Z,1.43
2022-11-23T21:25:08.165Z,1.43
2022-11-23T21:27:35.280Z,1.43
2022-11-23T21:30:01.817Z,1.47
2022-11-23T21:32:28.351Z,1.45
2022-11-23T21:34:55.881Z,1.43
2022-11-23T21:37:22.402Z,1.39
2022-11-23T21:39:52.841Z,1.41
2022-11-23T21:42:19.799Z,1.39
2022-11-23T21:44:46.516Z,1.35
2022-11-23T21:47:13.234Z,1.37
2022-11-23T21:49:40.022Z,1.37
2022-11-23T21:52:06.639Z,1.38
2022-11-23T21:54:33.434Z,1.38
2022-11-23T21:57:00.278Z,1.37
2022-11-23T21:59:26.842Z,1.38
2022-11-23T22:01:57.188Z,1.41
2022-11-23T22:04:23.863Z,1.43
2022-11-23T22:06:50.458Z,1.43
2022-11-23T22:09:17.275Z,1.43
2022-11-23T22:11:44.206Z,1.46
2022-11-23T22:14:12.110Z,1.46
2022-11-23T22:16:49.925Z,1.46
2022-11-23T22:19:17.115Z,1.45
2022-11-23T22:21:44.382Z,1.48
2022-11-23T22:24:12.690Z,1.49
2022-11-23T22:26:39.241Z,1.51
2022-11-23T22:29:06.879Z,1.52
2022-11-23T22:31:34.836Z,1.51
2022-11-23T22:34:04.402Z,1.56
2022-11-23T22:36:31.329Z,1.56
2022-11-23T22:39:01.749Z,1.57
2022-11-23T22:41:29.160Z,1.57
2022-11-23T22:43:56.262Z,1.58
2022-11-23T22:46:23.989Z,1.59
2022-11-23T22:48:51.765Z,1.60
2022-11-23T22:51:19.450Z,1.60
2022-11-23T22:53:46.444Z,1.60
2022-11-23T22:56:16.893Z,1.66
2022-11-23T22:58:44.595Z,1.61
2022-11-23T23:01:21.988Z,1.62
2022-11-23T23:03:52.479Z,1.60
2022-11-23T23:06:20.160Z,1.61
2022-11-23T23:08:47.917Z,1.60
2022-11-23T23:11:15.001Z,1.58
2022-11-23T23:13:41.883Z,1.57
2022-11-23T23:16:10.481Z,1.53
2022-11-23T23:18:37.160Z,1.52
2022-11-23T23:21:04.875Z,1.46
2022-11-23T23:23:31.450Z,1.46
2022-11-23T23:25:58.043Z,1.39
2022-11-23T23:28:24.686Z,1.29
2022-11-23T23:30:51.223Z,1.26
2022-11-23T23:33:17.809Z,1.22
2022-11-23T23:35:44.759Z,1.15
2022-11-23T23:38:11.320Z,1.11
2022-11-23T23:40:37.826Z,1.02
2022-11-23T23:43:04.383Z,0.98
2022-11-23T23:45:30.952Z,0.98
2022-11-23T23:47:58.014Z,0.97
2022-11-23T23:50:24.569Z,0.96
2022-11-23T23:52:51.140Z,0.92
2022-11-23T23:55:17.662Z,0.87
2022-11-23T23:57:44.200Z,0.79
